createdAt,value
2018-08-12T00:00:25.172Z,98662.39
2018-08-12T00:02:55.827Z,98658.36
2018-08-12T00:05:25.444Z,98666.26
2018-08-12T00:07:55.606Z,98665.44
2018-08-12T00:10:26.323Z,98661.95
2018-08-12T00:12:56.287Z,98664.03
2018-08-12T00:15:26.251Z,98663.91
2018-08-12T00:17:55.806Z,98660.95
2018-08-12T00:20:25.431Z,98660.70
2018-08-12T00:22:54.963Z,98658.56
2018-08-12T00:25:24.947Z,98660.23
2018-08-12T00:27:54.539Z,98657.97
2018-08-12T00:30:24.127Z,98652.47
2018-08-12T00:32:53.736Z,98648.52
2018-08-12T00:35:23.651Z,98645.77
2018-08-12T00:37:53.295Z,98648.77
2018-08-12T00:40:22.870Z,98645.06
2018-08-12T00:42:52.755Z,98645.19
2018-08-12T00:45:22.327Z,98649.63
2018-08-12T00:47:51.903Z,98647.60
2018-08-12T00:50:21.827Z,98646.87
2018-08-12T00:52:51.724Z,98642.34
2018-08-12T00:55:21.339Z,98631.23
2018-08-12T00:57:51.242Z,98629.80
2018-08-12T01:00:22.256Z,98636.50
2018-08-12T01:02:52.171Z,98635.42
2018-08-12T01:05:21.750Z,98632.18
2018-08-12T01:07:51.659Z,98633.28
2018-08-12T01:10:21.337Z,98630.64
2018-08-12T01:12:50.922Z,98626.11
2018-08-12T01:15:21.614Z,98627.06
2018-08-12T01:17:51.185Z,98626.83
2018-08-12T01:20:23.191Z,98626.70
2018-08-12T01:22:53.127Z,98623.09
2018-08-12T01:25:23.219Z,98616.17
2018-08-12T01:27:52.780Z,98618.55
2018-08-12T01:30:23.075Z,98616.89
2018-08-12T01:32:52.731Z,98608.51
2018-08-12T01:35:22.271Z,98606.25
2018-08-12T01:37:52.187Z,98609.37
2018-08-12T01:40:21.759Z,98607.80
2018-08-12T01:42:51.302Z,98604.70
2018-08-12T01:45:21.552Z,98601.13
2018-08-12T01:47:51.157Z,98601.58
2018-08-12T01:50:21.171Z,98601.45
2018-08-12T01:52:51.091Z,98599.44
2018-08-12T01:55:21.004Z,98598.59
2018-08-12T01:57:50.540Z,98595.01
2018-08-12T02:00:21.481Z,98595.36
2018-08-12T02:02:51.462Z,98592.16
2018-08-12T02:05:21.435Z,98586.66
2018-08-12T02:07:51.391Z,98584.50
2018-08-12T02:10:20.954Z,98584.36
2018-08-12T02:12:50.915Z,98582.59
2018-08-12T02:15:20.443Z,98577.80
2018-08-12T02:17:50.017Z,98573.39
2018-08-12T02:20:19.564Z,98574.11
2018-08-12T02:22:49.158Z,98573.25
2018-08-12T02:25:18.715Z,98568.72
2018-08-12T02:27:48.649Z,98560.14
2018-08-12T02:30:18.223Z,98558.20
2018-08-12T02:32:48.108Z,98559.06
2018-08-12T02:35:18.011Z,98553.34
2018-08-12T02:37:47.559Z,98548.89
2018-08-12T02:40:17.171Z,98543.63
2018-08-12T02:42:46.726Z,98543.72
2018-08-12T02:45:17.000Z,98536.91
2018-08-12T02:47:46.543Z,98530.84
2018-08-12T02:50:16.394Z,98528.69
2018-08-12T02:52:46.355Z,98525.35
2018-08-12T02:55:16.304Z,98518.69
2018-08-12T02:57:46.176Z,98517.72
2018-08-12T03:00:15.768Z,98513.89
2018-08-12T03:02:45.686Z,98515.95
2018-08-12T03:05:15.593Z,98512.70
2018-08-12T03:07:45.154Z,98510.16
2018-08-12T03:10:15.459Z,98509.20
2018-08-12T03:12:45.037Z,98515.39
2018-08-12T03:15:14.590Z,98512.73
2018-08-12T03:17:44.160Z,98514.05
2018-08-12T03:20:13.985Z,98511.17
2018-08-12T03:22:44.054Z,98510.60
2018-08-12T03:25:13.875Z,98500.34
2018-08-12T03:27:43.785Z,98501.88
2018-08-12T03:30:13.667Z,98503.05
2018-08-12T03:32:43.375Z,98508.74
2018-08-12T03:35:13.627Z,98500.63
2018-08-12T03:37:43.118Z,98507.63
2018-08-12T03:40:13.991Z,98504.06
2018-08-12T03:42:44.323Z,98495.60
2018-08-12T03:45:14.178Z,98500.99
2018-08-12T03:47:44.059Z,98499.31
2018-08-12T03:50:13.570Z,98498.94
2018-08-12T03:52:43.505Z,98497.85
2018-08-12T03:55:13.051Z,98496.20
2018-08-12T03:57:42.642Z,98496.66
2018-08-12T04:00:17.458Z,98492.84
2018-08-12T04:02:48.323Z,98495.94
2018-08-12T04:05:18.733Z,98499.50
2018-08-12T04:07:48.299Z,98494.03
2018-08-12T04:10:17.832Z,98495.45
2018-08-12T04:12:47.339Z,98486.13
2018-08-12T04:15:16.852Z,98486.13
2018-08-12T04:17:48.591Z,98486.84
2018-08-12T04:20:18.274Z,98494.59
2018-08-12T04:22:48.086Z,98488.27
2018-08-12T04:25:17.714Z,98485.38
2018-08-12T04:27:48.036Z,98485.98
2018-08-12T04:30:18.070Z,98486.43
2018-08-12T04:32:47.730Z,98488.00
2018-08-12T04:35:17.466Z,98491.93
2018-08-12T04:37:47.039Z,98494.55
2018-08-12T04:40:16.595Z,98492.64
2018-08-12T04:42:46.510Z,98492.42
2018-08-12T04:45:16.387Z,98487.55
2018-08-12T04:47:45.955Z,98494.11
2018-08-12T04:50:15.526Z,98487.59
2018-08-12T04:52:45.146Z,98493.09
2018-08-12T04:55:15.058Z,98494.66
2018-08-12T04:57:44.618Z,98486.91
2018-08-12T05:00:14.832Z,98483.20
2018-08-12T05:02:44.775Z,98488.34
2018-08-12T05:05:14.379Z,98492.16
2018-08-12T05:07:43.984Z,98491.59
2018-08-12T05:10:14.120Z,98489.00
2018-08-12T05:12:43.669Z,98483.52
2018-08-12T05:15:13.932Z,98490.48
2018-08-12T05:17:43.519Z,98486.31
2018-08-12T05:20:13.387Z,98491.80
2018-08-12T05:22:42.940Z,98485.04
2018-08-12T05:25:12.833Z,98476.95
2018-08-12T05:27:42.439Z,98477.34
2018-08-12T05:30:12.338Z,98473.02
2018-08-12T05:32:42.666Z,98472.85
2018-08-12T05:35:13.710Z,98472.17
2018-08-12T05:37:43.868Z,98473.37
2018-08-12T05:40:13.850Z,98462.57
2018-08-12T05:42:44.019Z,98453.99
2018-08-12T05:45:13.590Z,98458.95
2018-08-12T05:47:43.777Z,98452.17
2018-08-12T05:50:13.568Z,98454.39
2018-08-12T05:52:43.502Z,98461.07
2018-08-12T05:55:13.118Z,98447.63
2018-08-12T05:57:43.052Z,98449.75
2018-08-12T06:00:15.186Z,98445.22
2018-08-12T06:02:46.120Z,98443.48
2018-08-12T06:05:15.835Z,98438.03
2018-08-12T06:07:45.824Z,98437.50
2018-08-12T06:10:15.432Z,98431.84
2018-08-12T06:12:45.623Z,98441.03
2018-08-12T06:15:17.751Z,98437.79
2018-08-12T06:17:47.365Z,98436.03
2018-08-12T06:20:17.255Z,98436.06
2018-08-12T06:22:47.143Z,98431.23
2018-08-12T06:25:16.763Z,98427.26
2018-08-12T06:27:46.302Z,98432.88
2018-08-12T06:30:16.381Z,98427.38
2018-08-12T06:32:46.291Z,98428.81
2018-08-12T06:35:15.912Z,98415.94
2018-08-12T06:37:45.471Z,98415.41
2018-08-12T06:40:15.744Z,98415.47
2018-08-12T06:42:46.201Z,98416.88
2018-08-12T06:45:18.072Z,98412.25
2018-08-12T06:47:48.599Z,98409.05
2018-08-12T06:50:18.382Z,98404.99
2018-08-12T06:52:48.242Z,98402.38
2018-08-12T06:55:18.196Z,98405.30
2018-08-12T06:57:48.129Z,98397.12
2018-08-12T07:00:19.986Z,98398.70
2018-08-12T07:02:49.735Z,98395.13
2018-08-12T07:05:19.318Z,98390.69
2018-08-12T07:07:49.754Z,98395.10
2018-08-12T07:10:19.709Z,98390.36
2018-08-12T07:12:49.301Z,98385.09
2018-08-12T07:15:19.454Z,98374.94
2018-08-12T07:17:49.659Z,98367.30
2018-08-12T07:20:19.539Z,98374.12
2018-08-12T07:22:49.094Z,98372.03
2018-08-12T07:25:18.692Z,98373.88
2018-08-12T07:27:48.346Z,98365.24
2018-08-12T07:30:18.415Z,98360.83
2018-08-12T07:32:48.533Z,98370.22
2018-08-12T07:35:18.376Z,98373.33
2018-08-12T07:37:47.926Z,98372.26
2018-08-12T07:40:20.138Z,98366.19
2018-08-12T07:42:50.903Z,98359.23
2018-08-12T07:45:20.580Z,98359.10
2018-08-12T07:47:50.298Z,98359.75
2018-08-12T07:50:20.159Z,98355.32
2018-08-12T07:52:49.813Z,98352.03
2018-08-12T07:55:20.011Z,98348.78
2018-08-12T07:57:49.603Z,98346.81
2018-08-12T08:00:20.282Z,98346.01
2018-08-12T08:02:50.254Z,98341.13
2018-08-12T08:05:19.854Z,98341.52
2018-08-12T08:07:49.487Z,98340.70
2018-08-12T08:10:19.814Z,98339.66
2018-08-12T08:12:49.615Z,98333.80
2018-08-12T08:15:21.514Z,98332.45
2018-08-12T08:17:51.259Z,98337.41
2018-08-12T08:20:20.807Z,98331.86
2018-08-12T08:22:50.419Z,98330.41
2018-08-12T08:25:20.379Z,98325.84
2018-08-12T08:27:50.211Z,98325.20
2018-08-12T08:30:19.767Z,98336.20
2018-08-12T08:32:49.746Z,98328.68
2018-08-12T08:35:19.488Z,98330.53
2018-08-12T08:37:49.372Z,98324.59
2018-08-12T08:40:18.971Z,98326.15
2018-08-12T08:42:49.135Z,98323.06
2018-08-12T08:45:21.011Z,98332.37
2018-08-12T08:47:53.878Z,98318.19
2018-08-12T08:50:24.143Z,98321.45
2018-08-12T08:52:53.731Z,98316.97
2018-08-12T08:55:23.404Z,98307.41
2018-08-12T08:57:53.125Z,98310.30
2018-08-12T09:00:22.784Z,98309.20
2018-08-12T09:02:53.877Z,98305.66
2018-08-12T09:05:23.623Z,98294.04
2018-08-12T09:07:53.630Z,98298.52
2018-08-12T09:10:23.767Z,98286.80
2018-08-12T09:12:53.374Z,98286.59
2018-08-12T09:15:22.982Z,98285.39
2018-08-12T09:17:53.061Z,98285.25
2018-08-12T09:20:23.251Z,98285.53
2018-08-12T09:22:53.088Z,98287.19
2018-08-12T09:25:23.179Z,98286.64
2018-08-12T09:27:52.768Z,98282.61
2018-08-12T09:30:23.152Z,98283.52
2018-08-12T09:32:52.918Z,98277.24
2018-08-12T09:35:22.554Z,98273.52
2018-08-12T09:37:52.212Z,98268.94
2018-08-12T09:40:22.095Z,98270.02
2018-08-12T09:42:52.054Z,98271.77
2018-08-12T09:45:22.287Z,98261.58
2018-08-12T09:47:52.389Z,98262.38
2018-08-12T09:50:22.050Z,98264.45
2018-08-12T09:52:53.041Z,98258.07
2018-08-12T09:55:22.951Z,98257.31
2018-08-12T09:57:52.935Z,98249.91
2018-08-12T10:00:28.406Z,98248.33
2018-08-12T10:02:58.481Z,98250.03
2018-08-12T10:05:28.466Z,98244.42
2018-08-12T10:07:58.159Z,98247.88
2018-08-12T10:10:27.767Z,98246.76
2018-08-12T10:12:57.723Z,98241.05
2018-08-12T10:15:27.374Z,98234.32
2018-08-12T10:17:59.347Z,98231.58
2018-08-12T10:20:29.057Z,98237.19
2018-08-12T10:22:59.279Z,98233.42
2018-08-12T10:25:28.926Z,98224.44
2018-08-12T10:27:58.882Z,98225.95
2018-08-12T10:30:28.766Z,98222.86
2018-08-12T10:32:59.403Z,98215.86
2018-08-12T10:35:28.999Z,98217.57
2018-08-12T10:37:58.873Z,98212.77
2018-08-12T10:40:29.055Z,98206.78
2018-08-12T10:43:06.554Z,98202.97
2018-08-12T10:45:36.486Z,98204.24
2018-08-12T10:48:14.431Z,98200.72
2018-08-12T10:50:44.772Z,98194.15
2018-08-12T10:53:15.502Z,98191.45
2018-08-12T10:55:45.234Z,98183.89
2018-08-12T10:58:15.359Z,98176.94
2018-08-12T11:00:45.323Z,98174.86
2018-08-12T11:03:15.053Z,98176.93
2018-08-12T11:05:44.711Z,98171.31
2018-08-12T11:08:14.331Z,98162.12
2018-08-12T11:10:44.014Z,98149.20
2018-08-12T11:13:14.423Z,98155.79
2018-08-12T11:15:44.282Z,98151.80
2018-08-12T11:18:14.132Z,98149.11
2018-08-12T11:20:44.100Z,98142.47
2018-08-12T11:23:13.679Z,98146.88
2018-08-12T11:25:44.055Z,98146.81
2018-08-12T11:28:13.947Z,98142.16
2018-08-12T11:30:43.575Z,98144.27
2018-08-12T11:33:13.803Z,98149.95
2018-08-12T11:35:43.364Z,98147.08
2018-08-12T11:38:12.950Z,98145.70
2018-08-12T11:40:42.991Z,98140.66
2018-08-12T11:43:13.132Z,98137.30
2018-08-12T11:45:42.774Z,98129.44
2018-08-12T11:48:12.823Z,98127.50
2018-08-12T11:50:43.339Z,98122.34
2018-08-12T11:53:14.411Z,98117.63
2018-08-12T11:55:44.262Z,98107.60
2018-08-12T11:58:13.931Z,98106.88
2018-08-12T12:00:43.790Z,98109.92
2018-08-12T12:03:13.648Z,98099.75
2018-08-12T12:05:43.342Z,98100.73
2018-08-12T12:08:13.378Z,98098.84
2018-08-12T12:10:43.146Z,98100.38
2018-08-12T12:13:13.303Z,98086.95
2018-08-12T12:15:43.426Z,98091.00
2018-08-12T12:18:13.456Z,98091.08
2018-08-12T12:20:43.430Z,98089.63
2018-08-12T12:23:13.449Z,98087.10
2018-08-12T12:25:43.696Z,98083.52
2018-08-12T12:28:13.509Z,98078.28
2018-08-12T12:30:43.263Z,98079.70
2018-08-12T12:33:13.495Z,98062.78
2018-08-12T12:35:43.230Z,98054.48
2018-08-12T12:38:12.958Z,98055.29
2018-08-12T12:40:42.788Z,98056.86
2018-08-12T12:43:13.184Z,98054.62
2018-08-12T12:45:42.912Z,98052.92
2018-08-12T12:48:12.719Z,98044.28
2018-08-12T12:50:42.835Z,98042.59
2018-08-12T12:53:16.020Z,98038.55
2018-08-12T12:55:45.767Z,98034.51
2018-08-12T12:58:15.706Z,98029.73
2018-08-12T13:00:45.768Z,98028.05
2018-08-12T13:03:15.494Z,98024.71
2018-08-12T13:05:58.899Z,98022.66
2018-08-12T13:08:28.683Z,98016.14
2018-08-12T13:10:58.590Z,98017.31
2018-08-12T13:13:28.243Z,98010.08
2018-08-12T13:15:57.845Z,98015.77
2018-08-12T13:18:27.463Z,98010.36
2018-08-12T13:20:57.270Z,98010.90
2018-08-12T13:23:26.987Z,98007.01
2018-08-12T13:25:56.940Z,98003.42
2018-08-12T13:28:27.546Z,97994.17
2018-08-12T13:30:57.538Z,97995.43
2018-08-12T13:33:27.345Z,97993.73
2018-08-12T13:35:57.354Z,97987.89
2018-08-12T13:38:26.964Z,97976.72
2018-08-12T13:40:56.715Z,97974.76
2018-08-12T13:43:26.443Z,97970.42
2018-08-12T13:46:02.571Z,97974.99
2018-08-12T13:48:32.469Z,97975.84
2018-08-12T13:51:02.287Z,97976.45
2018-08-12T13:53:32.736Z,97970.39
2018-08-12T13:56:02.975Z,97968.22
2018-08-12T13:58:32.614Z,97963.27
2018-08-12T14:01:02.380Z,97957.73
2018-08-12T14:03:32.158Z,97952.58
2018-08-12T14:06:01.815Z,97952.12
2018-08-12T14:08:31.613Z,97956.94
2018-08-12T14:11:01.599Z,97953.68
2018-08-12T14:13:31.458Z,97934.60
2018-08-12T14:16:01.599Z,97935.72
2018-08-12T14:18:32.446Z,97930.30
2018-08-12T14:21:02.617Z,97927.24
2018-08-12T14:23:32.463Z,97921.32
2018-08-12T14:26:02.078Z,97917.81
2018-08-12T14:28:31.775Z,97910.98
2018-08-12T14:31:01.581Z,97910.55
2018-08-12T14:33:33.151Z,97906.00
2018-08-12T14:36:04.302Z,97903.55
2018-08-12T14:38:38.922Z,97901.12
2018-08-12T14:41:09.144Z,97895.28
2018-08-12T14:43:38.740Z,97894.12
2018-08-12T14:46:09.179Z,97890.74
2018-08-12T14:48:39.061Z,97885.20
2018-08-12T14:51:09.170Z,97877.13
2018-08-12T14:53:39.837Z,97874.63
2018-08-12T14:56:09.845Z,97870.94
2018-08-12T14:58:39.676Z,97869.70
2018-08-12T15:01:09.815Z,97871.22
2018-08-12T15:03:39.498Z,97865.17
2018-08-12T15:06:09.452Z,97861.60
2018-08-12T15:08:39.027Z,97848.33
2018-08-12T15:11:08.859Z,97850.39
2018-08-12T15:13:38.807Z,97843.38
2018-08-12T15:16:09.162Z,97837.45
2018-08-12T15:18:39.580Z,97837.22
2018-08-12T15:21:09.653Z,97836.48
2018-08-12T15:23:39.431Z,97833.33
2018-08-12T15:26:09.380Z,97827.70
2018-08-12T15:28:39.334Z,97829.59
2018-08-12T15:31:09.572Z,97826.13
2018-08-12T15:33:39.215Z,97814.77
2018-08-12T15:36:12.188Z,97815.08
2018-08-12T15:38:41.862Z,97801.31
2018-08-12T15:41:12.027Z,97812.66
2018-08-12T15:43:41.986Z,97806.93
2018-08-12T15:46:11.835Z,97804.40
2018-08-12T15:48:41.675Z,97800.56
2018-08-12T15:51:11.606Z,97789.80
2018-08-12T15:53:41.856Z,97796.25
2018-08-12T15:56:11.810Z,97787.06
2018-08-12T15:58:41.758Z,97784.30
2018-08-12T16:01:11.525Z,97775.05
2018-08-12T16:03:41.340Z,97771.78
2018-08-12T16:06:11.324Z,97768.78
2018-08-12T16:08:41.463Z,97774.17
2018-08-12T16:11:11.047Z,97765.81
2018-08-12T16:13:40.863Z,97766.09
2018-08-12T16:16:11.436Z,97763.40
2018-08-12T16:18:41.122Z,97759.66
2018-08-12T16:21:10.832Z,97752.93
2018-08-12T16:23:42.747Z,97753.09
2018-08-12T16:26:13.078Z,97752.52
2018-08-12T16:28:42.954Z,97746.73
2018-08-12T16:31:12.970Z,97746.66
2018-08-12T16:33:42.851Z,97744.84
2018-08-12T16:36:12.611Z,97741.34
2018-08-12T16:38:42.387Z,97737.88
2018-08-12T16:41:12.051Z,97734.08
2018-08-12T16:43:42.119Z,97726.84
2018-08-12T16:46:12.746Z,97724.63
2018-08-12T16:48:43.211Z,97722.41
2018-08-12T16:51:13.591Z,97719.10
2018-08-12T16:53:43.301Z,97713.98
2018-08-12T16:56:13.147Z,97710.66
2018-08-12T16:58:42.979Z,97706.25
2018-08-12T17:01:13.026Z,97707.55
2018-08-12T17:03:43.280Z,97705.60
2018-08-12T17:06:13.111Z,97700.42
2018-08-12T17:08:42.879Z,97696.66
2018-08-12T17:11:12.912Z,97694.80
2018-08-12T17:13:42.799Z,97695.77
2018-08-12T17:16:12.624Z,97694.83
2018-08-12T17:18:42.232Z,97691.02
2018-08-12T17:21:12.263Z,97688.80
2018-08-12T17:23:42.308Z,97682.77
2018-08-12T17:26:12.349Z,97686.97
2018-08-12T17:28:42.379Z,97682.30
2018-08-12T17:31:11.994Z,97678.45
2018-08-12T17:33:42.260Z,97668.43
2018-08-12T17:36:11.998Z,97669.97
2018-08-12T17:38:41.968Z,97672.52
2018-08-12T17:41:11.903Z,97665.11
2018-08-12T17:43:41.655Z,97666.91
2018-08-12T17:46:11.682Z,97671.10
2018-08-12T17:48:41.351Z,97663.96
2018-08-12T17:51:11.746Z,97660.82
2018-08-12T17:53:41.510Z,97666.89
2018-08-12T17:56:11.445Z,97669.38
2018-08-12T17:58:41.215Z,97667.03
2018-08-12T18:01:10.865Z,97666.25
2018-08-12T18:03:40.916Z,97661.22
2018-08-12T18:06:10.707Z,97662.63
2018-08-12T18:08:40.427Z,97668.33
2018-08-12T18:11:10.514Z,97666.21
2018-08-12T18:13:40.603Z,97665.50
2018-08-12T18:16:10.896Z,97674.38
2018-08-12T18:18:42.917Z,97676.58
2018-08-12T18:21:12.655Z,97682.17
2018-08-12T18:23:42.480Z,97680.22
2018-08-12T18:26:12.635Z,97678.56
2018-08-12T18:28:42.372Z,97683.61
2018-08-12T18:31:11.999Z,97683.91
2018-08-12T18:33:41.689Z,97685.77
2018-08-12T18:36:11.599Z,97689.16
2018-08-12T18:38:41.851Z,97687.15
2018-08-12T18:41:11.463Z,97691.61
2018-08-12T18:43:41.090Z,97696.04
2018-08-12T18:46:10.654Z,97702.48
2018-08-12T18:48:40.258Z,97700.41
2018-08-12T18:51:09.806Z,97703.16
2018-08-12T18:53:39.783Z,97702.09
2018-08-12T18:56:09.732Z,97707.89
2018-08-12T18:58:39.767Z,97708.78
2018-08-12T19:01:09.363Z,97716.68
2018-08-12T19:03:39.208Z,97716.12
2018-08-12T19:06:08.803Z,97716.84
2018-08-12T19:08:38.368Z,97722.64
2018-08-12T19:11:08.366Z,97727.92
2018-08-12T19:13:38.370Z,97729.58
2018-08-12T19:16:07.991Z,97725.85
2018-08-12T19:18:37.653Z,97726.80
2018-08-12T19:21:07.413Z,97732.53
2018-08-12T19:23:36.986Z,97721.04
2018-08-12T19:26:06.715Z,97725.55
2018-08-12T19:28:36.507Z,97727.70
2018-08-12T19:31:06.134Z,97723.17
2018-08-12T19:33:35.779Z,97720.70
2018-08-12T19:36:05.533Z,97724.23
2018-08-12T19:38:35.588Z,97719.50
2018-08-12T19:41:05.320Z,97721.64
2018-08-12T19:43:34.906Z,97714.95
2018-08-12T19:46:04.480Z,97722.44
2018-08-12T19:48:34.456Z,97724.97
2018-08-12T19:51:04.051Z,97723.50
2018-08-12T19:53:34.051Z,97716.09
2018-08-12T19:56:03.782Z,97713.95
2018-08-12T19:58:33.594Z,97720.40
2018-08-12T20:01:03.227Z,97719.77
2018-08-12T20:03:32.995Z,97721.80
2018-08-12T20:06:02.896Z,97718.17
2018-08-12T20:08:32.565Z,97712.89
2018-08-12T20:11:02.137Z,97711.59
2018-08-12T20:13:31.717Z,97714.52
2018-08-12T20:16:01.258Z,97717.97
2018-08-12T20:18:31.010Z,97718.26
2018-08-12T20:21:00.699Z,97710.75
2018-08-12T20:23:30.962Z,97719.41
2018-08-12T20:26:00.542Z,97707.27
2018-08-12T20:28:30.119Z,97707.33
2018-08-12T20:31:00.402Z,97704.58
2018-08-12T20:33:30.638Z,97706.11
2018-08-12T20:36:00.927Z,97703.36
2018-08-12T20:38:30.738Z,97696.14
2018-08-12T20:41:00.412Z,97697.27
2018-08-12T20:43:30.364Z,97689.77
2018-08-12T20:45:59.970Z,97698.38
2018-08-12T20:48:29.534Z,97702.73
2018-08-12T20:50:59.595Z,97702.77
2018-08-12T20:53:29.526Z,97696.58
2018-08-12T20:55:59.467Z,97689.05
2018-08-12T20:58:29.064Z,97690.80
2018-08-12T21:00:58.966Z,97689.25
2018-08-12T21:03:28.952Z,97692.97
2018-08-12T21:05:58.506Z,97696.66
2018-08-12T21:08:28.096Z,97691.42
2018-08-12T21:10:58.051Z,97695.80
2018-08-12T21:13:27.639Z,97691.70
2018-08-12T21:15:57.319Z,97689.45
2018-08-12T21:18:26.942Z,97694.31
2018-08-12T21:20:56.756Z,97695.04
2018-08-12T21:23:26.449Z,97693.11
2018-08-12T21:25:56.199Z,97690.84
2018-08-12T21:28:25.843Z,97685.93
2018-08-12T21:30:55.577Z,97682.16
2018-08-12T21:33:25.268Z,97683.34
2018-08-12T21:35:55.089Z,97689.34
2018-08-12T21:38:24.995Z,97687.55
2018-08-12T21:40:54.625Z,97687.25
2018-08-12T21:43:24.539Z,97680.62
2018-08-12T21:45:54.116Z,97682.84
2018-08-12T21:48:23.686Z,97683.71
2018-08-12T21:50:53.303Z,97680.45
2018-08-12T21:53:22.946Z,97686.11
2018-08-12T21:55:52.526Z,97684.84
2018-08-12T21:58:22.102Z,97686.02
2018-08-12T22:00:54.043Z,97690.17
2018-08-12T22:03:23.615Z,97691.69
2018-08-12T22:05:53.608Z,97686.80
2018-08-12T22:08:23.311Z,97696.43
2018-08-12T22:10:53.224Z,97694.77
2018-08-12T22:13:22.831Z,97694.34
2018-08-12T22:15:52.818Z,97696.21
2018-08-12T22:18:22.443Z,97701.05
2018-08-12T22:20:51.979Z,97701.53
2018-08-12T22:23:21.879Z,97702.55
2018-08-12T22:25:51.462Z,97700.55
2018-08-12T22:28:21.408Z,97703.55
2018-08-12T22:30:51.031Z,97702.58
2018-08-12T22:33:20.593Z,97702.45
2018-08-12T22:35:50.171Z,97700.97
2018-08-12T22:38:20.083Z,97695.72
2018-08-12T22:40:50.016Z,97694.06
2018-08-12T22:43:20.160Z,97694.11
2018-08-12T22:45:49.682Z,97690.02
2018-08-12T22:48:19.259Z,97697.64
2018-08-12T22:50:48.867Z,97689.22
2018-08-12T22:53:18.442Z,97689.23
2018-08-12T22:55:48.060Z,97688.92
2018-08-12T22:58:17.792Z,97684.14
2018-08-12T23:00:47.436Z,97684.97
2018-08-12T23:03:17.076Z,97685.64
2018-08-12T23:05:46.628Z,97679.20
2018-08-12T23:08:16.222Z,97674.90
2018-08-12T23:10:45.838Z,97677.89
2018-08-12T23:13:15.412Z,97674.13
2018-08-12T23:16:27.706Z,97674.47
2018-08-12T23:18:57.560Z,97668.03
2018-08-12T23:21:27.508Z,97662.77
2018-08-12T23:23:57.285Z,97658.29
2018-08-12T23:26:26.939Z,97664.27
2018-08-12T23:28:56.622Z,97665.62
2018-08-12T23:31:26.471Z,97660.50
2018-08-12T23:33:56.047Z,97655.41
2018-08-12T23:36:26.271Z,97656.05
2018-08-12T23:38:56.274Z,97657.06
2018-08-12T23:41:26.085Z,97666.31
2018-08-12T23:43:55.899Z,97666.01
2018-08-12T23:46:25.599Z,97658.58
2018-08-12T23:48:55.423Z,97654.13
2018-08-12T23:51:25.123Z,97658.42
2018-08-12T23:53:54.771Z,97651.81
2018-08-12T23:56:24.656Z,97642.58
2018-08-12T23:58:54.623Z,97643.20
